Weather observations for the past three days for
Omaha, Millard Airport
Metric (Imperial)
Date Time (cdt) Wind (kph) Vis. (km) Weather Sky Cond. Temperature (ºC) Relative Humidity Wind Chill (°C) Heat Index (°C) Pressure Precipitation (cm)
Air Dwpt 6 hour altimeter (cm) sea level (mb) 1 hr 3 hr 6 hr
Max. Min.
06 11:15 Calm 16.09 Fair CLR 27.3 23.6 80% 30 76.23 0.0
06 10:55 Calm 16.09 Fair CLR 27.1 23.1 79% 30 76.25 0.0
06 10:35 S 9 16.09 Mostly Cloudy SCT055 SCT080 BKN100 27 23.3 80% 30 76.23 0.0
06 10:15 Calm 16.09 Thunderstorm Rain in Vicinity SCT050 SCT065 BKN080 27.1 23 78% 30 76.28 0.0
06 09:55 SE 11 16.09 Thunderstorm in Vicinity SCT090 27.2 23.1 78% 30 76.23 0.0
06 09:35 SE 11 16.09 Thunderstorm in Vicinity SCT090 27.1 23.1 79% 30 76.2 0.0
06 09:15 SE 11 16.09 Fair CLR 27 23.1 79% 30 76.2 0.0
06 08:55 SE 13 16.09 Fair CLR 26.5 23 81% 29 76.2 0.0
06 08:35 SE 15 16.09 Fair CLR 26.5 23 81% 29 76.2 0.0
06 08:15 SE 15 16.09 Partly Cloudy SCT090 26.3 22.9 82% 28 76.2 0.0
06 07:55 SE 9 16.09 Mostly Cloudy BKN090 25.6 22.7 84% 27 76.2 0.0
06 07:35 SE 9 16.09 Partly Cloudy SCT090 25.2 22.5 85% 26 76.17 0.0
06 07:15 SE 9 16.09 Partly Cloudy SCT090 24.8 22.5 87% 25 76.15 0.0
06 06:55 SE 7 16.09 Mostly Cloudy BKN080 24.7 22.4 27.3 24.5 87% 25 76.15 0.0
06 06:35 SE 9 16.09 Partly Cloudy SCT080 24.7 22.3 87% 25 76.12 0.0
06 06:15 SE 7 16.09 Partly Cloudy SCT080 SCT100 24.8 22.4 87% 25 76.12 0.0
06 05:55 SE 7 16.09 Mostly Cloudy BKN080 BKN100 24.8 22.4 87% 25 76.12 0.0
06 05:35 SE 7 16.09 Partly Cloudy SCT080 25.1 22.4 85% 26 76.12 0.0
06 05:15 SE 6 16.09 Partly Cloudy SCT080 25.5 22.5 84% 27 76.1 0.0
06 04:35 Calm 16.09 Partly Cloudy SCT080 24.7 22.4 87% 25 76.1 0.0
06 04:15 Calm 16.09 Partly Cloudy SCT080 24.5 22.4 88% 25 76.1 0.0
06 03:55 Calm 16.09 Fair CLR 25.1 22.2 84% 26 76.1 0.0
06 03:35 Calm 16.09 Fair CLR 25.5 22.3 83% 27 76.1 0.0
06 03:15 SE 6 16.09 Fair CLR 25.5 22.2 82% 27 76.1 0.0
06 02:55 SE 6 16.09 Fair CLR 25.5 22.2 82% 27 76.1 0.0
06 02:35 SE 7 16.09 Fair CLR 25.5 22.2 82% 27 76.1 0.0
06 02:15 SE 7 16.09 Fair CLR 26.1 22.3 80% 28 76.1 0.0
06 01:55 SE 7 16.09 Fair CLR 26.3 22.5 80% 28 76.1 0.0
06 01:35 SE 7 16.09 Fair CLR 26.6 22.5 78% 29 76.12 0.0
06 01:15 SE 7 16.09 Fair CLR 27.1 22.5 76% 30 76.12 0.0
06 00:55 SE 7 16.09 Fair CLR 27.3 22.5 32.7 27.3 75% 30 76.1 0.0
06 00:35 SE 7 16.09 Fair CLR 27.6 22.6 74% 30 76.1 0.0
06 00:15 SE 6 16.09 Fair CLR 28 22.7 73% 31 76.1 0.0
05 23:55 SE 6 16.09 Fair CLR 28.2 22.8 73% 31 76.1 0.0
05 23:35 E 6 16.09 Fair CLR 28.5 22.9 72% 32 76.1 0.0
05 23:15 E 6 16.09 Fair CLR 28.7 23 71% 32 76.1 0.0
05 22:55 SE 6 16.09 Fair CLR 29 23.1 71% 33 76.12 0.0
05 22:35 E 6 16.09 Fair CLR 29.3 23.2 70% 33 76.1 0.0
05 22:15 Calm 16.09 Fair CLR 29.5 23.5 70% 34 76.1 0.0
05 21:55 SE 7 16.09 Fair CLR 29.8 23.5 69% 34 76.05 0.0
05 21:35 E 9 16.09 Fair CLR 30 23.6 69% 35 76.02 0.0
05 21:15 E 7 16.09 Fair CLR 30.3 23.6 67% 35 76.02 0.0
05 20:55 E 7 16.09 Fair CLR 30.5 23.5 66% 35 76 0.0
05 20:35 E 7 16.09 Fair CLR 30.9 23.6 65% 36 75.97 0.0
05 20:15 E 9 16.09 Fair CLR 31.2 23.8 65% 37 75.97 0.0
05 19:55 E 9 16.09 Fair CLR 31.6 23.8 63% 37 75.95 0.0
05 19:35 E 6 16.09 Fair CLR 32.3 23.6 60% 38 75.95 0.0
05 19:15 SE 13 16.09 Fair CLR 32.5 23.6 59% 38 75.92 0.0
05 18:55 SE 15 16.09 Fair CLR 32.7 23.8 33.7 30.4 59% 39 75.95 0.0
05 18:35 SE 11 16.09 Fair CLR 33.1 23.6 57% 39 75.95 0.0
05 18:15 SE 13 16.09 Fair CLR 33.5 23.5 56% 39 75.95 0.0
05 17:55 SE 15 16.09 Fair CLR 33.5 23.5 56% 39 75.95 0.0
05 17:35 SE 19 16.09 Fair CLR 33.5 22.9 54% 39 75.92 0.0
05 17:15 SE 17 G 31 16.09 Fair CLR 33.4 22.7 53% 38 75.9 0.0
05 16:55 SE 11 16.09 Fair CLR 33.2 22.5 53% 38 75.92 0.0
05 16:35 SE 19 16.09 Fair CLR 33.6 22.2 51% 38 75.95 0.0
05 16:15 SE 15 16.09 Fair CLR 33 21.5 51% 37 75.95 0.0
05 15:55 E 13 16.09 Fair CLR 32.7 22.1 54% 37 75.97 0.0
05 15:35 SE 15 16.09 Fair CLR 32.2 21.2 52% 35 76.02 0.0
05 15:15 E 15 G 26 16.09 Fair CLR 32.3 20.7 50% 35 76.05 0.0
05 14:55 E 13 16.09 Fair CLR 32.1 22.2 56% 36 76.1 0.0
05 12:55 NE 9 G 30 16.09 Fair CLR 30.6 22.5 31.7 22.7 62% 34 76.2 0.0
05 12:35 NE 17 G 28 16.09 Fair CLR 30.5 22.4 62% 34 76.2 0.0
05 12:15 NE 15 16.09 Fair CLR 30.7 22.2 61% 34 76.2 0.0
05 11:55 NE 9 16.09 Fair CLR 31 22 59% 35 76.2 0.0
05 11:35 N 15 16.09 Fair CLR 30.8 22.2 60% 34 76.23 0.0
05 11:15 N 13 16.09 Fair CLR 31.5 22 57% 35 76.2 0.0
05 10:55 Calm 16.09 Fair CLR 31 21.5 57% 34 76.17 0.0
05 10:35 Calm 16.09 Fair CLR 30 21.2 59% 33 76.15 0.0
05 10:15 Calm 16.09 Fair CLR 29.7 21.2 60% 32 76.15 0.0
05 09:55 Calm 16.09 Fair CLR 29.6 21.1 60% 32 76.15 0.0
05 09:35 Calm 16.09 Fair CLR 28.8 20.9 62% 31 76.1 0.0
05 09:15 SE 9 16.09 Fair CLR 28 21.6 68% 30 76.07 0.0
05 08:55 SE 7 16.09 Fair CLR 27.6 21.6 70% 30 76.1 0.0
05 08:35 Calm 16.09 Fair CLR 27 21.9 74% 29 76.1 0.0
05 08:15 Calm 16.09 Fair CLR 25.6 22 81% 27 76.05 0.0
05 07:55 Calm 16.09 Fair CLR 23.9 21.4 86% 24 76.05 0.0
05 07:35 Calm 16.09 Fair CLR 23.8 20.8 83% 76.02 0.0
05 07:15 Calm 16.09 Fair CLR 23.2 21 88% 76 0.0
05 06:55 Calm 16.09 Fair CLR 22.8 21.2 26.6 22.7 91% 76 0.0
05 06:35 Calm 16.09 Fair CLR 23.1 21.3 90% 76 0.0
05 06:15 Calm 16.09 Fair CLR 22.8 21.3 91% 75.97 0.0
05 05:55 Calm 16.09 Fair CLR 23 21.5 91% 75.97 0.0
05 05:35 Calm 16.09 Fair CLR 23.2 21.3 89% 75.97 0.0
05 05:15 Calm 16.09 Fair CLR 23.5 21.3 88% 75.95 0.0
05 04:55 Calm 16.09 Fair CLR 23.7 21.6 88% 75.95 0.0
05 04:35 Calm 16.09 Fair CLR 24 21.7 87% 24 75.95 0.0
05 04:15 Calm 16.09 Fair CLR 24.1 21.8 87% 24 75.95 0.0
05 03:55 Calm 16.09 Fair CLR 24.5 21.8 85% 25 75.95 0.0
05 03:35 Calm 16.09 Fair CLR 24.5 22 86% 25 75.97 0.0
05 03:15 Calm 16.09 Fair CLR 24.5 22.1 87% 25 75.97 0.0
05 02:55 Calm 16.09 Fair CLR 24.2 22.1 88% 24 76 0.0
05 02:35 Calm 16.09 Fair CLR 24.3 22.2 88% 24 76 0.0
05 02:15 Calm 16.09 Fair CLR 25.1 22.3 85% 26 76 0.0
05 01:55 Calm 16.09 Fair CLR 25.7 22.1 81% 27 76 0.0
05 01:35 Calm 16.09 Fair CLR 26.3 22.2 78% 28 76.02 0.0
05 01:15 Calm 16.09 Fair CLR 26.3 22.5 80% 28 76 0.0
05 00:55 Calm 16.09 Fair CLR 26.7 22.6 33.8 26.3 78% 29 76 0.0
05 00:35 Calm 16.09 Fair CLR 26.6 23 81% 29 76 0.0
05 00:15 Calm 16.09 Fair CLR 26.8 23.1 80% 29 76 0.0
04 23:55 Calm 16.09 Fair CLR 26.8 23.6 83% 30 76 0.0
04 23:35 Calm 16.09 Fair CLR 26.9 23.5 82% 30 75.97 0.0
04 23:15 Calm 16.09 Fair CLR 27.4 23.5 79% 31 75.97 0.0
04 22:55 Calm 16.09 Fair CLR 27.4 23.8 81% 31 75.95 0.0
04 22:35 Calm 16.09 Fair CLR 28.8 23.5 73% 33 75.95 0.0
04 22:15 Calm 16.09 Fair CLR 29.1 23.5 72% 33 75.95 0.0
04 21:55 Calm 16.09 Fair CLR 28.8 23.8 74% 33 75.95 0.0
04 21:35 Calm 16.09 Fair CLR 29.5 24.2 73% 35 75.92 0.0
04 21:15 Calm 16.09 Fair CLR 28.8 24.5 78% 34 75.92 0.0
04 20:55 Calm 16.09 Fair CLR 30.3 24.1 69% 36 75.9 0.0
04 20:35 Calm 16.09 Fair CLR 30 24.4 72% 36 75.87 0.0
04 20:15 Calm 16.09 Fair CLR 30.2 24.7 72% 36 75.87 0.0
04 19:55 Calm 16.09 Fair CLR 30.9 24.8 70% 37 75.84 0.0
04 19:35 Calm 16.09 Fair CLR 32.5 24 61% 39 75.84 0.0
04 19:15 S 7 16.09 Fair CLR 33.7 23.5 55% 40 75.84 0.0
04 18:55 S 9 16.09 Fair CLR 34 23.5 35.3 32.3 54% 40 75.84 0.0
04 18:35 S 7 16.09 Fair CLR 34 23.2 53% 40 75.84 0.0
04 18:15 Calm 16.09 Fair CLR 34.3 23 52% 40 75.87 0.0
04 17:55 Calm 16.09 Fair CLR 34.9 23.2 51% 41 75.87 0.0
04 17:35 SW 7 16.09 Fair CLR 34.2 23 52% 40 75.87 0.0
04 17:15 W 11 16.09 Fair CLR 34.5 22.6 50% 39 75.87 0.0
04 16:55 W 11 16.09 Fair CLR 35 22.3 48% 40 75.84 0.0
04 16:35 SW 9 16.09 Fair CLR 34.6 22.5 49% 39 75.87 0.0
04 16:15 SW 6 16.09 Fair CLR 34.7 22.7 50% 40 75.84 0.0
04 15:55 S 13 16.09 Fair CLR 34.7 22.9 50% 40 75.87 0.0
04 15:35 SW 9 16.09 Fair CLR 34.6 22.7 50% 40 75.87 0.0
04 15:15 S 9 16.09 Fair CLR 34.4 23.1 52% 40 75.87 0.0
04 14:55 S 13 16.09 Fair CLR 34.2 23 52% 40 75.9 0.0
04 14:35 W 9 16.09 Fair CLR 34.3 22.9 51% 40 75.9 0.0
04 14:15 S 7 16.09 Fair CLR 33.5 22.5 53% 38 75.9 0.0
04 13:55 S 9 16.09 Fair CLR 33.3 22.6 53% 38 75.92 0.0
04 13:35 SW 11 16.09 Fair CLR 32.8 22.1 53% 37 75.95 0.0
04 13:15 Calm 16.09 Fair CLR 32.9 22.2 53% 37 75.95 0.0
04 12:55 SW 11 16.09 Fair CLR 32.4 22.3 32.4 24.8 55% 37 75.95 0.0
04 12:35 SW 9 16.09 Fair CLR 32.1 21.9 55% 36 75.95 0.0
04 12:15 Calm 16.09 Fair CLR 31.9 22.4 57% 36 75.95 0.0
04 11:55 W 7 16.09 Fair CLR 31.1 22.1 59% 35 75.95 0.0
04 11:35 SW 11 16.09 Partly Cloudy SCT120 30.6 22.2 61% 34 75.95 0.0
04 11:15 S 7 16.09 Fair CLR 30.1 22 62% 33 75.95 0.0
04 10:55 S 7 16.09 Fair CLR 30.3 22.1 62% 34 75.95 0.0
04 10:35 SW 11 16.09 Fair CLR 29.9 22.2 63% 33 75.95 0.0
04 10:15 S 6 16.09 Fair CLR 29.2 21.8 64% 32 75.95 0.0
04 09:55 S 9 16.09 Fair CLR 28.6 21.6 66% 31 75.95 0.0
04 09:35 S 6 16.09 Fair CLR 28.3 21.8 68% 31 75.95 0.0
04 09:15 S 7 16.09 Fair CLR 27.6 21.6 70% 30 75.95 0.0
04 08:55 S 7 16.09 Fair CLR 26.8 21.4 72% 29 75.95 0.0
04 08:35 SE 9 16.09 Fair CLR 26.6 21.2 72% 28 75.95 0.0
04 08:15 SE 11 16.09 Fair CLR 26.2 21.1 74% 28 75.9 0.0
04 07:55 SE 9 16.09 Fair CLR 25.2 21.2 79% 26 75.9 0.0
04 07:35 SE 9 16.09 Fair CLR 25 21 79% 26 75.87 0.0
04 07:15 S 6 16.09 Fair CLR 25 20.7 77% 26 75.87 0.0
04 06:55 SE 6 16.09 Fair CLR 25.2 20.7 28.2 25.2 76% 26 75.84 0.0
04 06:35 S 7 16.09 Fair CLR 26 20.7 73% 27 75.84 0.0
04 06:15 S 6 16.09 Fair CLR 26.1 20.6 72% 28 75.84 0.0
04 05:55 S 7 16.09 Fair CLR 26.5 20.6 70% 28 75.84 0.0
04 05:35 S 6 16.09 Fair CLR 26.7 20.6 69% 28 75.84 0.0
04 05:15 S 7 16.09 Fair CLR 27.1 20.5 67% 29 75.84 0.0
04 04:55 S 9 16.09 Fair CLR 27.5 20.5 66% 29 75.84 0.0
04 04:35 S 7 16.09 Fair CLR 27.7 20.5 65% 30 75.82 0.0
04 04:15 S 6 16.09 Fair CLR 27.9 20.4 64% 30 75.79 0.0
04 03:55 S 9 16.09 Fair CLR 28.2 20.4 63% 30 75.79 0.0
04 03:35 S 11 16.09 Fair CLR 28 20.2 63% 30 75.79 0.0
04 03:15 S 9 16.09 Fair CLR 28 20 62% 30 75.77 0.0
04 02:55 S 7 16.09 Fair CLR 27.8 20 63% 29 75.79 0.0
04 02:35 S 11 16.09 Fair CLR 27.8 19.8 62% 29 75.79 0.0
04 02:15 S 11 16.09 Fair CLR 28 19.7 61% 30 75.79 0.0
04 01:55 S 9 16.09 Fair CLR 27.8 19.7 61% 29 75.79 0.0
04 01:35 S 9 16.09 Fair CLR 27.9 19.8 61% 29 75.79 0.0
04 01:15 S 11 16.09 Fair CLR 27.6 20 63% 29 75.79 0.0
04 00:55 S 11 16.09 Fair CLR 28.1 20 33.7 27.7 61% 30 75.79 0.0
04 00:35 S 15 16.09 Fair CLR 28.6 20 60% 30 75.77 0.0
04 00:15 SE 13 16.09 Fair CLR 28.7 19.9 59% 30 75.77 0.0
03 23:55 SE 11 G 26 16.09 Fair CLR 28.2 20.2 62% 30 75.77 0.0
03 23:35 SE 9 16.09 Fair CLR 28.1 20.4 63% 30 75.74 0.0
03 23:15 SE 7 16.09 Fair CLR 28.2 20.6 63% 30 75.77 0.0
03 22:55 SE 7 16.09 Fair CLR 27.9 20.8 65% 30 75.77 0.0
03 22:35 SE 7 16.09 Fair CLR 28.1 21 65% 30 75.77 0.0
03 22:15 SE 11 16.09 Fair CLR 28.6 21.2 64% 31 75.77 0.0
03 21:55 SE 11 16.09 Fair CLR 28.5 21.5 66% 31 75.74 0.0
03 21:35 SE 11 16.09 Fair CLR 29.1 21.4 63% 32 75.74 0.0
03 21:15 SE 9 16.09 Fair CLR 29.2 21.5 63% 32 75.72 0.0
03 20:55 SE 11 16.09 Fair CLR 29.6 21.5 62% 32 75.72 0.0
03 20:35 SE 11 16.09 Fair CLR 30.1 21.6 60% 33 75.69 0.0
03 20:15 SE 13 16.09 Fair CLR 30.5 21.9 60% 34 75.67 0.0
03 19:55 SE 15 16.09 Fair CLR 31.1 22.3 59% 35 75.67 0.0
03 19:35 SE 13 16.09 Fair CLR 31.9 22.2 56% 36 75.64 0.0
03 19:15 SE 15 16.09 Fair CLR 33.1 22.1 52% 37 75.64 0.0
03 18:55 SE 17 16.09 Fair CLR 33.7 21.7 35.6 31.8 49% 38 75.64 0.0
03 18:35 SE 13 G 31 16.09 Fair CLR 34.3 21.7 48% 38 75.64 0.0
03 18:15 S 22 G 28 16.09 Fair CLR 34.7 21.5 46% 39 75.64 0.0
03 17:55 S 17 16.09 Fair CLR 35 21.7 46% 39 75.64 0.0
03 17:35 S 15 G 28 16.09 Fair CLR 35.2 21.8 46% 40 75.62 0.0
03 17:15 SE 22 G 28 16.09 Fair CLR 35.3 22.3 47% 40 75.62 0.0
03 16:55 S 20 G 31 16.09 Fair CLR 35.2 22.2 47% 40 75.62 0.0
03 16:35 S 20 G 31 16.09 Fair CLR 35.1 22 47% 40 75.64 0.0
03 16:15 S 20 G 31 16.09 Fair CLR 35.2 22.1 47% 40 75.64 0.0
03 15:55 S 22 G 31 16.09 Fair CLR 35.3 22.1 46% 40 75.64 0.0
03 15:35 S 19 G 35 16.09 Fair CLR 35 21.6 46% 39 75.67 0.0
03 15:15 S 20 G 33 16.09 Fair CLR 34.8 21.4 46% 39 75.67 0.0
03 14:55 S 20 G 31 16.09 Fair CLR 35 20.9 44% 38 75.69 0.0
03 14:35 S 17 16.09 Fair CLR 34.4 22.5 50% 39 75.69 0.0
03 14:15 SE 19 16.09 Fair CLR 33.6 22.5 52% 38 75.72 0.0
03 13:55 S 20 G 26 16.09 Fair CLR 33.3 22 52% 37 75.74 0.0
03 13:35 SE 19 16.09 Fair CLR 32.8 22.2 54% 37 75.77 0.0
03 13:15 S 13 16.09 Fair CLR 32.3 22.1 55% 36 75.77 0.0
03 12:55 S 13 16.09 Fair CLR 31.6 21.3 31.6 24 54% 35 75.79 0.0
03 12:35 S 17 16.09 Fair CLR 31.3 21.5 56% 34 75.82 0.0
03 12:15 S 19 G 28 16.09 Partly Cloudy SCT110 30.9 21.3 57% 34 75.82 0.0
03 11:55 S 9 16.09 Partly Cloudy SCT120 30.2 21 58% 33 75.84 0.0
03 11:35 S 7 16.09 Partly Cloudy SCT120 29.1 20.9 61% 31 75.82 0.0
Date Time (cdt) Wind (kph) Vis. (km) Weather Sky Cond. Air Dwpt Max. Min. Relative Humidity Wind Chill (°C) Heat Index (°C) altimeter (cm) sea level (mb) 1 hr 3 hr 6 hr
6 hour
Temperature (ºC) Pressure Precipitation (cm)